Time;durP1;ratioP1;P1;durP2;ratioP2;P2;SDS_P1;SDS_P2;PMS_P1;PMS_P2;Temp;Humidity;BMP_temperature;BMP_pressure;BME280_temperature;BME280_humidity;BME280_pressure;Samples;Min_cycle;Max_cycle;Signal;HPM_P1;HPM_P2
2022/06/25 00:01:50;;;;;;;;;0.67;0.67;;;;;21.55;59.17;100194.84;6254325;22;45326;-79
2022/06/25 00:07:01;;;;;;;;;2.00;2.00;;;;;21.56;59.14;100184.88;6253829;22;45170;-79
2022/06/25 00:09:27;;;;;;;;;1.00;1.00;;;;;;;;6253682;22;45646;-79
2022/06/25 00:14:38;;;;;;;;;2.00;2.00;;;;;21.59;59.16;100190.16;6253038;22;45375;-79
2022/06/25 00:17:04;;;;;;;;;2.33;2.00;;;;;21.58;59.23;100183.00;6226927;22;47995;-79
2022/06/25 00:19:30;;;;;;;;;2.00;2.00;;;;;21.56;59.54;100195.72;6254179;22;45299;-79
2022/06/25 00:22:02;;;;;;;;;3.00;3.00;;;;;21.48;59.61;100176.19;6254652;22;45327;-80
2022/06/25 00:24:27;;;;;;;;;2.00;2.00;;;;;21.50;59.26;100182.41;6253241;22;44852;-80
2022/06/25 00:26:53;;;;;;;;;2.67;1.67;;;;;21.56;59.77;100191.16;6256450;22;45326;-79
2022/06/25 00:29:18;;;;;;;;;2.75;2.75;;;;;21.52;60.29;100183.25;6229031;22;45438;-80
2022/06/25 00:31:44;;;;;;;;;3.67;2.67;;;;;21.45;60.25;100179.00;6229137;22;45374;-80
2022/06/25 00:34:09;;;;;;;;;2.00;2.00;;;;;21.42;59.65;100181.81;6255275;22;45342;-80
2022/06/25 00:36:36;;;;;;;;;3.00;2.00;;;;;21.40;61.05;100178.28;6253016;22;45328;-79
2022/06/25 00:39:02;;;;;;;;;3.00;2.00;;;;;21.40;60.00;100178.28;6223791;22;45706;-80
2022/06/25 00:41:29;;;;;;;;;3.00;3.00;;;;;21.41;61.39;100177.34;6227424;22;45371;-79
2022/06/25 00:43:54;;;;;;;;;2.33;2.00;;;;;21.38;60.40;100186.47;6253909;22;45320;-79
2022/06/25 00:46:19;;;;;;;;;2.00;2.00;;;;;21.38;60.07;100170.22;6253554;22;45379;-80
2022/06/25 00:48:45;;;;;;;;;2.67;2.67;;;;;21.40;60.51;100178.28;6252985;22;45316;-79
2022/06/25 00:51:13;;;;;;;;;2.67;1.67;;;;;21.38;60.74;100184.63;6227119;22;45435;-79
2022/06/25 00:53:46;;;;;;;;;1.67;1.67;;;;;21.37;60.64;100179.31;6227095;22;44813;-80
2022/06/25 00:56:13;;;;;;;;;3.00;2.00;;;;;21.35;60.42;100171.25;6225584;22;47309;-79
2022/06/25 00:58:42;;;;;;;;;2.00;2.00;;;;;21.34;61.15;100182.13;6228314;22;45415;-79
2022/06/25 01:01:10;;;;;;;;;3.00;3.00;;;;;21.32;61.92;100192.97;6227543;22;45772;-79
2022/06/25 01:03:36;;;;;;;;;3.33;2.33;;;;;21.26;62.40;100187.81;6226225;22;45549;-79
2022/06/25 01:06:04;;;;;;;;;2.67;2.67;;;;;21.25;61.97;100196.88;6254391;22;45402;-79
2022/06/25 01:08:32;;;;;;;;;3.00;3.00;;;;;21.27;61.85;100194.09;6253837;22;45474;-79
2022/06/25 01:10:58;;;;;;;;;4.00;2.00;;;;;21.26;62.20;100189.66;6226022;22;45324;-80
2022/06/25 01:13:23;;;;;;;;;2.00;2.00;;;;;21.29;62.69;100200.34;6227412;22;45316;-80
2022/06/25 01:15:50;;;;;;;;;2.67;2.67;;;;;21.29;62.77;100201.25;6227781;22;47152;-80
2022/06/25 01:18:15;;;;;;;;;2.00;2.00;;;;;21.24;62.62;100196.94;6229543;22;45351;-80
2022/06/25 01:20:42;;;;;;;;;2.00;1.67;;;;;21.25;62.92;100195.97;6257790;22;45279;-80
2022/06/25 01:23:09;;;;;;;;;2.00;2.00;;;;;21.19;62.91;100199.84;6230466;22;45273;-80
2022/06/25 01:25:36;;;;;;;;;1.67;1.67;;;;;21.17;63.84;100204.41;6257209;22;45378;-79
2022/06/25 01:28:02;;;;;;;;;3.33;3.33;;;;;21.14;64.14;100196.41;6255531;22;45460;-80
2022/06/25 01:30:28;;;;;;;;;3.00;3.00;;;;;21.11;63.01;100188.44;6255731;22;45409;-79
2022/06/25 01:32:53;;;;;;;;;3.33;3.33;;;;;21.08;63.09;100188.53;6229084;22;45456;-79
2022/06/25 01:35:19;;;;;;;;;3.00;3.00;;;;;21.13;62.65;100194.66;6253750;22;45342;-80
2022/06/25 01:37:44;;;;;;;;;2.00;2.00;;;;;21.14;63.29;100199.97;6253301;22;45309;-79
2022/06/25 01:40:10;;;;;;;;;5.00;3.00;;;;;21.13;63.37;100200.94;6227541;22;44784;-80
2022/06/25 01:43:00;;;;;;;;;4.33;4.00;;;;;21.10;63.15;100200.16;6255524;22;45375;-79
2022/06/25 01:45:31;;;;;;;;;3.00;3.00;;;;;21.12;63.77;100201.88;6225727;22;47813;-79
2022/06/25 01:47:58;;;;;;;;;4.00;2.00;;;;;21.05;63.84;100199.47;6255355;22;45350;-79
2022/06/25 01:50:24;;;;;;;;;3.00;3.00;;;;;21.07;63.65;100203.00;6224432;22;45742;-79
2022/06/25 01:52:50;;;;;;;;;3.00;3.00;;;;;20.99;65.33;100195.19;6254640;22;44775;-80
2022/06/25 01:55:17;;;;;;;;;4.67;2.67;;;;;20.98;65.16;100201.50;6255267;22;45844;-79
2022/06/25 01:57:42;;;;;;;;;5.00;5.00;;;;;20.97;66.62;100202.47;6254458;22;45310;-79
2022/06/25 02:00:12;;;;;;;;;2.33;2.00;;;;;20.91;66.37;100200.00;6252983;22;45486;-79
2022/06/25 02:02:38;;;;;;;;;3.00;3.00;;;;;20.88;66.29;100211.78;6251722;22;45250;-78
2022/06/25 02:05:05;;;;;;;;;3.00;2.00;;;;;20.88;67.26;100216.31;6250577;22;45435;-79
2022/06/25 02:07:31;;;;;;;;;2.75;2.75;;;;;20.89;66.63;100215.38;6226308;22;45243;-79
2022/06/25 02:09:56;;;;;;;;;2.00;2.00;;;;;20.84;66.68;100215.53;6225913;22;45499;-79
2022/06/25 02:12:22;;;;;;;;;3.33;3.33;;;;;20.85;66.52;100217.31;6254108;22;45389;-79
2022/06/25 02:14:48;;;;;;;;;3.33;2.00;;;;;20.83;66.89;100216.50;6224752;22;47134;-81
2022/06/25 02:17:13;;;;;;;;;2.00;2.00;;;;;20.86;68.97;100224.47;6254364;22;45338;-80
2022/06/25 02:19:39;;;;;;;;;3.00;3.00;;;;;20.79;68.37;100228.34;6227419;22;45585;-80
2022/06/25 02:22:04;;;;;;;;;3.00;3.00;;;;;20.71;70.09;100220.50;6254426;22;45405;-80
2022/06/25 02:24:30;;;;;;;;;2.00;2.00;;;;;20.66;69.45;100219.78;6226510;22;46630;-80
2022/06/25 02:26:57;;;;;;;;;3.00;3.00;;;;;20.69;68.94;100221.53;6255634;22;45332;-80
2022/06/25 02:29:22;;;;;;;;;2.33;2.33;;;;;20.73;69.72;100225.88;6256331;22;45857;-80
2022/06/25 02:31:47;;;;;;;;;3.33;3.33;;;;;20.74;70.24;100222.22;6227494;22;45391;-80
2022/06/25 02:34:13;;;;;;;;;3.00;3.00;;;;;20.69;71.08;100210.72;6254256;22;45311;-80
2022/06/25 02:36:38;;;;;;;;;2.50;2.50;;;;;20.71;71.34;100223.22;6251919;22;44725;-80
2022/06/25 02:39:03;;;;;;;;;3.75;3.00;;;;;20.65;71.78;100226.16;6226994;22;45334;-79
2022/06/25 02:41:29;;;;;;;;;3.00;3.00;;;;;20.63;73.89;100222.63;6254573;22;45236;-79
2022/06/25 02:43:54;;;;;;;;;3.00;3.00;;;;;20.60;74.55;100224.53;6226944;22;46806;-79
2022/06/25 02:46:20;;;;;;;;;3.67;2.67;;;;;20.47;76.06;100216.84;6253404;22;45342;-79
2022/06/25 02:48:45;;;;;;;;;4.33;4.00;;;;;20.42;77.47;100224.22;6252279;22;44911;-80
2022/06/25 02:51:10;;;;;;;;;2.00;2.00;;;;;20.36;77.19;100221.75;6252363;22;45349;-80
2022/06/25 02:53:37;;;;;;;;;5.00;3.50;;;;;20.33;78.62;100222.72;6225308;22;47147;-80
2022/06/25 02:58:56;;;;;;;;;2.00;2.00;;;;;20.31;78.00;100218.31;6252331;22;45303;-80
2022/06/25 03:01:26;;;;;;;;;2.00;2.00;;;;;20.35;79.32;100237.03;6252682;22;45630;-80
2022/06/25 03:03:54;;;;;;;;;2.00;2.00;;;;;20.31;79.13;100221.00;6252053;22;45351;-79
2022/06/25 03:06:20;;;;;;;;;4.00;2.33;;;;;20.31;80.30;100226.41;6251735;22;45350;-79
2022/06/25 03:08:46;;;;;;;;;1.33;1.33;;;;;20.29;80.25;100226.47;6252869;22;45267;-80
2022/06/25 03:11:11;;;;;;;;;1.00;1.00;;;;;20.26;79.60;100220.28;6252578;22;45402;-79
2022/06/25 03:13:37;;;;;;;;;2.00;2.00;;;;;20.23;79.49;100228.50;6254464;22;45323;-80
2022/06/25 03:16:07;;;;;;;;;3.00;3.00;;;;;20.21;80.69;100219.56;6227777;22;44894;-79
2022/06/25 03:18:33;;;;;;;;;3.00;2.00;;;;;20.19;79.84;100231.28;6255437;22;45338;-79
2022/06/25 03:20:59;;;;;;;;;3.00;2.00;;;;;20.13;79.34;100223.38;6255647;22;45677;-79
2022/06/25 03:23:24;;;;;;;;;2.00;2.00;;;;;20.17;78.91;100216.94;6254228;22;44851;-79
2022/06/25 03:25:50;;;;;;;;;1.33;1.33;;;;;20.19;78.29;100225.88;6256313;22;45320;-79
2022/06/25 03:28:16;;;;;;;;;2.33;2.33;;;;;20.19;78.06;100222.31;6229533;22;45283;-80
2022/06/25 03:30:42;;;;;;;;;2.00;2.00;;;;;20.23;77.88;100226.66;6229627;22;44840;-79
2022/06/25 03:33:08;;;;;;;;;1.00;1.00;;;;;20.27;77.58;100228.31;6253971;22;45474;-78
2022/06/25 03:35:33;;;;;;;;;0.33;0.33;;;;;20.27;77.56;100230.16;6253263;22;44725;-78
2022/06/25 03:37:59;;;;;;;;;2.00;2.00;;;;;20.23;77.50;100232.06;6253448;22;45382;-78
2022/06/25 03:43:47;;;;;;;;;1.00;1.00;;;;;20.18;76.25;100232.22;6252118;22;45676;-79
2022/06/25 03:46:12;;;;;;;;;0.00;0.00;;;;;20.21;75.83;100249.25;6225620;22;45382;-78
2022/06/25 03:48:38;;;;;;;;;0.00;0.00;;;;;20.18;76.37;100240.34;6257206;22;45370;-78
2022/06/25 03:51:05;;;;;;;;;1.00;1.00;;;;;20.22;75.60;100248.31;6256413;22;45730;-77
2022/06/25 03:53:30;;;;;;;;;0.00;0.00;;;;;20.24;76.16;100244.66;6255878;22;45426;-79
2022/06/25 03:55:56;;;;;;;;;3.00;1.00;;;;;20.26;75.13;100250.88;6227594;22;45323;-78
2022/06/25 03:58:21;;;;;;;;;0.25;0.25;;;;;20.28;74.88;100240.00;6254421;22;45328;-78
2022/06/25 04:00:47;;;;;;;;;2.00;0.33;;;;;20.32;74.51;100241.66;6228103;22;45236;-80
2022/06/25 04:03:13;;;;;;;;;1.00;0.67;;;;;20.35;74.34;100252.38;6227186;22;47039;-79
2022/06/25 04:05:39;;;;;;;;;1.00;1.00;;;;;20.36;74.53;100254.16;6252906;22;45337;-79
2022/06/25 04:08:04;;;;;;;;;0.00;0.00;;;;;20.38;74.26;100261.25;6227288;22;45307;-80
2022/06/25 04:10:30;;;;;;;;;1.50;0.00;;;;;20.37;74.57;100256.78;6228418;22;45366;-80
2022/06/25 04:12:55;;;;;;;;;3.00;1.00;;;;;20.36;74.44;100260.44;6255325;22;46295;-80
2022/06/25 04:15:22;;;;;;;;;0.00;0.00;;;;;20.37;74.30;100258.59;6255105;22;45761;-80
2022/06/25 04:17:47;;;;;;;;;0.33;0.33;;;;;20.36;74.42;100257.72;6228825;22;45420;-80
2022/06/25 04:20:13;;;;;;;;;0.00;0.00;;;;;20.32;74.52;100252.47;6229046;22;45547;-80
2022/06/25 04:22:38;;;;;;;;;0.00;0.00;;;;;20.36;74.39;100259.56;6255037;22;45815;-80
2022/06/25 04:25:05;;;;;;;;;0.67;0.67;;;;;20.43;74.09;100266.50;6254872;22;45584;-80
2022/06/25 04:30:15;;;;;;;;;0.33;0.33;;;;;20.45;73.63;100266.47;6255100;22;45244;-79
2022/06/25 04:32:41;;;;;;;;;1.00;1.00;;;;;20.47;73.88;100272.69;6256144;22;45252;-80
2022/06/25 04:35:07;;;;;;;;;0.00;0.00;;;;;20.48;74.23;100274.44;6228100;22;45567;-80
2022/06/25 04:40:53;;;;;;;;;0.00;0.00;;;;;20.44;74.80;100272.78;6254655;22;45534;-79
2022/06/25 04:43:21;;;;;;;;;1.00;1.00;;;;;20.45;74.83;100278.13;6256337;22;45769;-80
2022/06/25 04:45:46;;;;;;;;;1.25;1.25;;;;;20.44;74.43;100272.78;6252275;22;45761;-80
2022/06/25 04:48:12;;;;;;;;;1.00;1.00;;;;;20.41;74.56;100273.78;6253162;22;45347;-79
2022/06/25 04:50:38;;;;;;;;;0.75;0.75;;;;;20.47;74.26;100281.66;6227997;22;45618;-80
2022/06/25 04:53:03;;;;;;;;;1.33;1.33;;;;;20.49;74.41;100292.44;6254869;22;44993;-79
2022/06/25 04:55:28;;;;;;;;;1.75;1.75;;;;;20.50;73.67;100284.28;6253955;22;45357;-79
2022/06/25 04:57:54;;;;;;;;;0.25;0.25;;;;;20.52;74.16;100287.81;6251240;22;45202;-79
2022/06/25 05:00:19;;;;;;;;;1.25;1.25;;;;;20.49;73.67;100279.78;6225035;22;45311;-79
2022/06/25 05:02:45;;;;;;;;;0.75;0.75;;;;;20.55;73.26;100282.28;6253958;22;45343;-79
2022/06/25 05:05:10;;;;;;;;;1.00;1.00;;;;;20.64;73.56;100297.31;6254997;22;45403;-80
2022/06/25 05:07:36;;;;;;;;;1.75;1.75;;;;;20.68;73.31;100292.69;6256877;22;45375;-80
2022/06/25 05:10:01;;;;;;;;;1.00;1.00;;;;;20.74;73.41;100300.59;6255169;22;45387;-80
2022/06/25 05:15:10;;;;;;;;;1.75;1.75;;;;;20.82;71.97;100301.19;6255864;22;45486;-80
2022/06/25 05:17:38;;;;;;;;;1.00;1.00;;;;;20.96;71.66;100300.72;6256810;22;45372;-80
2022/06/25 05:20:04;;;;;;;;;3.00;1.75;;;;;21.15;71.03;100320.75;6228338;22;45535;-80
2022/06/25 05:22:29;;;;;;;;;0.75;0.75;;;;;21.27;70.07;100311.31;6253425;22;47089;-80
2022/06/25 05:24:54;;;;;;;;;3.00;2.00;;;;;21.32;69.53;100321.94;6254141;22;45370;-80
2022/06/25 05:27:20;;;;;;;;;2.00;2.00;;;;;21.34;69.15;100318.25;6227775;22;44798;-80
2022/06/25 05:29:46;;;;;;;;;1.25;1.25;;;;;21.40;68.23;100314.44;6253097;22;45439;-80
2022/06/25 05:32:13;;;;;;;;;1.00;1.00;;;;;21.46;67.56;100306.09;6253494;22;45564;-80
2022/06/25 05:34:38;;;;;;;;;0.00;0.00;;;;;21.57;65.90;100308.41;6256408;22;45516;-79
2022/06/25 05:37:04;;;;;;;;;1.50;1.00;;;;;21.66;65.30;100316.16;6254708;22;44892;-79
2022/06/25 05:39:29;;;;;;;;;2.00;2.00;;;;;21.74;65.25;100329.41;6257029;22;45427;-78
2022/06/25 05:41:55;;;;;;;;;1.00;1.00;;;;;21.75;63.69;100321.25;6255751;22;45409;-78
2022/06/25 05:44:20;;;;;;;;;1.00;1.00;;;;;21.73;61.59;100325.84;6254473;22;45373;-78
2022/06/25 05:47:01;;;;;;;;;3.00;1.67;;;;;21.72;61.77;100326.75;6254326;22;44760;-78
2022/06/25 05:49:26;;;;;;;;;0.00;0.00;;;;;21.73;61.56;100324.94;6226274;22;45403;-78
2022/06/25 05:51:53;;;;;;;;;2.00;2.00;;;;;21.74;61.54;100314.06;6252477;22;45235;-78
2022/06/25 05:54:19;;;;;;;;;0.25;0.25;;;;;21.83;61.26;100314.63;6227229;22;45359;-79
2022/06/25 05:56:44;;;;;;;;;1.00;1.00;;;;;21.82;61.02;100316.47;6254581;22;44763;-79
2022/06/25 05:59:09;;;;;;;;;2.00;2.00;;;;;21.73;60.69;100301.47;6255652;22;45264;-80
2022/06/25 06:01:35;;;;;;;;;4.00;1.75;;;;;21.83;60.23;100323.63;6228048;22;46579;-79
2022/06/25 06:04:01;;;;;;;;;2.00;2.00;;;;;21.87;59.95;100324.41;6255629;22;45379;-79
2022/06/25 06:06:27;;;;;;;;;0.67;0.67;;;;;22.01;59.65;100332.84;6254330;22;45327;-79
2022/06/25 06:08:58;;;;;;;;;1.00;1.00;;;;;22.11;59.44;100317.13;6229015;22;45357;-79
2022/06/25 06:11:24;;;;;;;;;2.00;1.00;;;;;22.16;58.88;100315.13;6229230;22;46868;-79
2022/06/25 06:13:49;;;;;;;;;0.67;0.67;;;;;22.14;58.17;100312.47;6226743;22;45323;-79
2022/06/25 06:16:15;;;;;;;;;1.00;1.00;;;;;22.09;57.67;100324.44;6226528;22;44740;-79
2022/06/25 06:18:40;;;;;;;;;1.00;1.00;;;;;22.05;57.98;100323.66;6226604;22;45406;-79
2022/06/25 06:21:06;;;;;;;;;4.00;2.00;;;;;22.03;57.60;100324.66;6252792;22;45717;-80
2022/06/25 06:23:31;;;;;;;;;1.00;1.00;;;;;22.03;57.50;100321.97;6254952;22;45358;-80
2022/06/25 06:25:56;;;;;;;;;2.00;1.00;;;;;22.13;57.20;100331.47;6228500;22;45486;-80
2022/06/25 06:28:23;;;;;;;;;1.00;1.00;;;;;22.24;57.09;100328.34;6255878;22;44734;-79
2022/06/25 06:30:48;;;;;;;;;1.00;1.00;;;;;22.43;56.78;100323.94;6254212;22;45513;-79
2022/06/25 06:33:14;;;;;;;;;0.25;0.25;;;;;22.62;56.91;100329.47;6226738;22;45339;-79
2022/06/25 06:35:39;;;;;;;;;0.00;0.00;;;;;22.71;56.83;100328.22;6256211;22;45334;-78
2022/06/25 06:38:05;;;;;;;;;1.50;1.50;;;;;22.85;56.40;100330.34;6255094;22;44801;-79
2022/06/25 06:40:30;;;;;;;;;1.25;1.25;;;;;23.00;56.08;100326.06;6255308;22;45322;-79
2022/06/25 06:42:56;;;;;;;;;1.00;1.00;;;;;23.00;56.53;100328.78;6229918;22;45321;-80
2022/06/25 06:45:22;;;;;;;;;1.00;1.00;;;;;22.91;57.00;100336.38;6229466;22;45347;-79
2022/06/25 06:47:48;;;;;;;;;5.00;2.00;;;;;22.86;57.01;100334.81;6229474;22;44806;-80
2022/06/25 06:50:14;;;;;;;;;0.00;0.00;;;;;22.75;56.32;100329.84;6228871;22;45324;-81
2022/06/25 06:52:39;;;;;;;;;1.67;1.00;;;;;22.76;56.32;100342.44;6203545;22;45702;-80
2022/06/25 06:55:05;;;;;;;;;0.00;0.00;;;;;22.76;56.89;100343.34;6256532;22;45310;-80
2022/06/25 06:57:37;;;;;;;;;1.50;1.50;;;;;22.70;57.28;100332.75;6229073;22;45350;-80
2022/06/25 07:00:07;;;;;;;;;2.00;1.00;;;;;22.74;56.92;100330.78;6229750;22;47952;-80
2022/06/25 07:02:36;;;;;;;;;1.00;1.00;;;;;22.80;57.00;100337.78;6228995;22;45801;-80
2022/06/25 07:05:02;;;;;;;;;1.00;1.00;;;;;22.81;56.62;100334.13;6230152;22;44798;-80
2022/06/25 07:07:27;;;;;;;;;0.33;0.33;;;;;22.81;57.13;100335.00;6254438;22;45411;-80
2022/06/25 07:09:53;;;;;;;;;0.75;0.75;;;;;22.71;56.47;100328.22;6258070;22;46895;-80
2022/06/25 07:12:19;;;;;;;;;1.00;1.00;;;;;22.60;56.46;100336.78;6231999;22;44663;-79
2022/06/25 07:14:45;;;;;;;;;1.00;1.00;;;;;22.66;55.99;100352.81;6230559;22;45327;-79
2022/06/25 07:17:11;;;;;;;;;2.50;1.50;;;;;22.62;55.86;100344.84;6228870;22;45504;-79
2022/06/25 07:19:38;;;;;;;;;2.25;2.00;;;;;22.63;56.35;100343.94;6228714;22;46946;-79
2022/06/25 07:22:11;;;;;;;;;1.00;1.00;;;;;22.64;55.68;100353.81;6252163;22;44786;-79
2022/06/25 07:24:36;;;;;;;;;0.00;0.00;;;;;22.72;55.52;100347.13;6253626;22;45347;-79
2022/06/25 07:27:02;;;;;;;;;1.00;1.00;;;;;22.88;55.02;100350.03;6253116;22;45386;-79
2022/06/25 07:29:29;;;;;;;;;1.00;1.00;;;;;22.97;54.57;100354.22;6255925;22;45425;-79
2022/06/25 07:31:56;;;;;;;;;1.00;1.00;;;;;23.02;54.25;100349.47;6256463;22;45344;-80
2022/06/25 07:34:22;;;;;;;;;2.00;1.00;;;;;22.95;54.76;100351.56;6255110;22;44702;-80
2022/06/25 07:37:00;;;;;;;;;1.75;1.75;;;;;22.88;53.95;100355.47;6249341;22;45586;-80
2022/06/25 07:39:26;;;;;;;;;2.00;2.00;;;;;22.91;54.17;100363.47;6255986;22;45345;-80
2022/06/25 07:41:51;;;;;;;;;1.00;1.00;;;;;22.95;54.62;100365.13;6228970;22;45491;-80
2022/06/25 07:44:17;;;;;;;;;2.50;1.50;;;;;23.02;53.80;100371.19;6228722;22;45334;-80
2022/06/25 07:46:42;;;;;;;;;1.00;1.00;;;;;23.05;54.07;100370.19;6257138;22;44746;-80
2022/06/25 07:49:09;;;;;;;;;1.00;1.00;;;;;23.01;54.49;100357.69;6228955;22;46637;-79
2022/06/25 07:54:20;;;;;;;;;0.00;0.00;;;;;22.94;53.08;100368.75;6255780;22;45609;-79
2022/06/25 07:56:45;;;;;;;;;1.25;1.25;;;;;22.94;52.44;100368.75;6255658;22;45341;-80
2022/06/25 07:59:13;;;;;;;;;1.00;1.00;;;;;22.99;51.78;100378.56;6227738;22;46876;-80
2022/06/25 08:01:38;;;;;;;;;2.00;2.00;;;;;23.06;51.37;100377.34;6255070;22;45366;-80
2022/06/25 08:04:04;;;;;;;;;2.25;1.00;;;;;23.17;50.26;100381.38;6255381;22;45424;-79
2022/06/25 08:06:30;;;;;;;;;2.50;1.00;;;;;23.15;49.62;100388.69;6228337;22;45407;-80
2022/06/25 08:08:56;;;;;;;;;1.50;1.00;;;;;23.10;50.05;100381.69;6252988;22;45407;-79
2022/06/25 08:11:21;;;;;;;;;2.00;1.00;;;;;23.16;50.09;100378.72;6252227;22;45333;-79
2022/06/25 08:13:47;;;;;;;;;1.50;1.50;;;;;23.22;49.93;100392.00;6225011;22;45363;-79
2022/06/25 08:16:15;;;;;;;;;0.00;0.00;;;;;23.26;49.47;100396.34;6255271;22;45663;-79
2022/06/25 08:18:40;;;;;;;;;2.00;2.00;;;;;23.26;49.99;100380.06;6226336;22;47567;-79
2022/06/25 08:21:07;;;;;;;;;2.75;1.00;;;;;23.23;50.31;100382.94;6251990;22;45389;-78
2022/06/25 08:23:32;;;;;;;;;0.67;0.67;;;;;23.22;50.41;100372.16;6250826;22;45435;-79
2022/06/25 08:25:59;;;;;;;;;1.00;1.00;;;;;23.25;50.62;100382.84;6250601;22;45318;-79
2022/06/25 08:28:24;;;;;;;;;1.00;1.00;;;;;23.30;51.14;100388.97;6251788;22;45716;-79
2022/06/25 08:30:50;;;;;;;;;1.33;1.00;;;;;23.31;50.83;100391.63;6255587;22;44804;-80
2022/06/25 08:33:15;;;;;;;;;1.00;1.00;;;;;23.32;51.21;100396.06;6255423;22;45404;-79
2022/06/25 08:35:41;;;;;;;;;1.00;1.00;;;;;23.20;51.53;100396.63;6255620;22;45397;-79
2022/06/25 08:38:08;;;;;;;;;1.00;1.00;;;;;23.05;51.75;100405.44;6227114;22;47596;-79
2022/06/25 08:40:34;;;;;;;;;2.00;2.00;;;;;22.86;52.53;100392.63;6227495;22;45658;-79
2022/06/25 08:43:00;;;;;;;;;2.67;1.00;;;;;22.74;52.86;100404.88;6254450;22;45262;-79
2022/06/25 08:45:26;;;;;;;;;2.00;2.00;;;;;22.77;53.75;100396.59;6228989;22;45306;-80
2022/06/25 08:47:52;;;;;;;;;2.67;2.67;;;;;22.76;54.01;100405.69;6256954;22;46062;-80
2022/06/25 08:50:21;;;;;;;;;3.00;2.00;;;;;22.71;55.14;100401.41;6230593;22;44716;-80
2022/06/25 08:53:03;;;;;;;;;3.00;2.00;;;;;22.66;56.24;100407.03;6260047;22;45327;-79
2022/06/25 08:55:34;;;;;;;;;1.33;1.33;;;;;22.64;55.42;100411.59;6259920;22;45447;-80
2022/06/25 08:58:00;;;;;;;;;2.00;2.00;;;;;22.59;55.51;100399.22;6232205;22;47325;-80
2022/06/25 09:00:28;;;;;;;;;2.75;2.75;;;;;22.60;54.72;100401.84;6259168;22;45175;-80
2022/06/25 09:02:53;;;;;;;;;2.00;2.00;;;;;22.62;55.14;100409.91;6230887;22;44825;-79
2022/06/25 09:05:32;;;;;;;;;1.33;1.33;;;;;22.64;56.06;100418.84;6230667;22;45267;-80
2022/06/25 09:08:00;;;;;;;;;2.00;2.00;;;;;22.63;56.05;100417.13;6253024;22;45377;-79
2022/06/25 09:10:27;;;;;;;;;3.00;3.00;;;;;22.69;56.87;100427.69;6223677;22;45358;-81
2022/06/25 09:12:54;;;;;;;;;3.00;3.00;;;;;22.67;56.43;100413.31;6201114;22;45336;-79
2022/06/25 09:15:24;;;;;;;;;3.67;3.67;;;;;22.75;56.30;100416.59;6253107;22;45389;-79
2022/06/25 09:18:33;;;;;;;;;3.00;3.00;;;;;22.85;57.07;100399.00;6226430;22;47469;-79
2022/06/25 09:21:00;;;;;;;;;2.00;2.00;;;;;22.97;55.97;100397.59;6227218;22;45305;-79
2022/06/25 09:23:27;;;;;;;;;2.67;2.67;;;;;23.17;54.89;100403.06;6228208;22;45319;-79
2022/06/25 09:26:19;;;;;;;;;2.00;1.00;;;;;23.46;54.25;100397.31;6228683;22;45338;-80
2022/06/25 09:28:44;;;;;;;;;2.00;2.00;;;;;23.65;54.42;100390.09;6249232;22;45574;-79
2022/06/25 09:31:10;;;;;;;;;3.00;3.00;;;;;23.76;53.43;100389.59;6253861;22;44740;-79
2022/06/25 09:33:39;;;;;;;;;2.75;2.75;;;;;23.88;52.66;100382.75;6225247;22;45322;-79
2022/06/25 09:36:09;;;;;;;;;2.50;2.50;;;;;24.07;52.41;100386.34;6198664;22;45323;-79
2022/06/25 09:38:37;;;;;;;;;3.00;3.00;;;;;24.24;52.40;100384.66;6226326;22;45343;-79
2022/06/25 09:41:03;;;;;;;;;3.00;3.00;;;;;24.32;51.78;100383.34;6253369;22;45358;-79
2022/06/25 09:46:56;;;;;;;;;3.00;2.00;;;;;24.39;50.93;100375.75;6251900;22;44827;-79
2022/06/25 09:49:22;;;;;;;;;2.00;2.00;;;;;24.42;50.31;100380.16;6224611;22;46721;-79
2022/06/25 09:51:58;;;;;;;;;3.25;2.00;;;;;24.52;50.65;100396.00;6227345;22;45362;-80
2022/06/25 09:54:24;;;;;;;;;1.75;1.75;;;;;24.56;50.47;100385.81;6229727;22;44734;-80
2022/06/25 09:56:50;;;;;;;;;2.33;2.33;;;;;24.51;50.76;100386.06;6257883;22;45855;-80
2022/06/25 09:59:16;;;;;;;;;3.00;3.00;;;;;24.44;50.60;100386.38;6256919;22;45421;-80
2022/06/25 10:01:42;;;;;;;;;3.00;2.00;;;;;24.35;50.28;100388.59;6257467;22;44788;-79
2022/06/25 10:04:09;;;;;;;;;3.67;2.67;;;;;24.25;49.98;100383.72;6255980;22;45299;-79
2022/06/25 10:06:38;;;;;;;;;3.67;2.00;;;;;24.23;50.24;100382.91;6225855;22;45327;-79
2022/06/25 10:09:06;;;;;;;;;3.00;3.00;;;;;24.20;50.23;100389.38;6227201;22;46713;-79
2022/06/25 10:11:34;;;;;;;;;2.75;2.75;;;;;24.10;50.43;100388.06;6225713;22;45757;-80
2022/06/25 10:14:00;;;;;;;;;2.00;2.00;;;;;23.97;50.08;100390.44;6227324;22;44833;-80
2022/06/25 10:16:28;;;;;;;;;2.00;2.00;;;;;23.95;50.04;100395.06;6253145;22;45353;-81
2022/06/25 10:18:57;;;;;;;;;2.00;2.00;;;;;23.99;48.90;100388.53;6225025;22;46815;-79
2022/06/25 10:21:24;;;;;;;;;6.33;4.67;;;;;24.12;49.47;100388.88;6224680;22;45409;-80
2022/06/25 10:23:54;;;;;;;;;3.00;3.00;;;;;24.27;49.13;100379.06;6255499;22;45390;-79
2022/06/25 10:26:21;;;;;;;;;3.33;3.33;;;;;24.40;49.66;100384.78;6254700;22;45461;-79
2022/06/25 10:28:47;;;;;;;;;2.67;2.33;;;;;24.62;48.43;100373.75;6228337;22;45173;-80
2022/06/25 10:31:16;;;;;;;;;3.00;3.00;;;;;24.84;48.04;100363.53;6255790;22;45308;-80
2022/06/25 10:34:05;;;;;;;;;3.00;3.00;;;;;25.00;47.15;100362.78;6255684;22;45297;-80
2022/06/25 10:36:49;;;;;;;;;3.00;3.00;;;;;25.16;47.47;100363.72;6254149;22;45136;-79
2022/06/25 10:39:28;;;;;;;;;5.00;4.00;;;;;25.33;46.31;100366.47;6253574;22;46950;-79
2022/06/25 10:45:19;;;;;;;;;3.50;3.50;;;;;25.29;46.41;100364.00;6254600;22;45255;-80
2022/06/25 10:47:48;;;;;;;;;4.00;4.00;;;;;25.35;46.33;100370.00;6191739;23;45423;-79
2022/06/25 10:50:20;;;;;;;;;7.67;7.00;;;;;25.38;45.96;100365.34;6166194;23;47923;-80
2022/06/25 10:53:09;;;;;;;;;5.67;4.00;;;;;25.29;45.82;100381.22;6193731;23;44820;-80
2022/06/25 10:55:50;;;;;;;;;5.33;3.67;;;;;25.23;46.27;100370.66;6170032;23;45384;-80
2022/06/25 10:58:23;;;;;;;;;3.00;3.00;;;;;25.16;46.09;100363.72;6170047;23;45383;-80
2022/06/25 11:01:02;;;;;;;;;2.00;2.00;;;;;25.17;46.34;100365.50;6169512;23;46722;-80
2022/06/25 11:03:27;;;;;;;;;2.00;2.00;;;;;25.09;46.29;100374.06;6167755;23;45620;-79
2022/06/25 11:06:00;;;;;;;;;2.00;2.00;;;;;25.05;46.04;100375.19;6194252;23;44756;-80
2022/06/25 11:08:35;;;;;;;;;2.00;2.00;;;;;25.04;46.60;100367.09;6169738;23;45337;-79
2022/06/25 11:11:03;;;;;;;;;3.33;3.33;;;;;25.08;46.14;100374.13;6193912;22;46796;-79
2022/06/25 11:13:29;;;;;;;;;2.00;2.00;;;;;25.19;46.06;100377.19;6145034;23;44793;-79
2022/06/25 11:15:58;;;;;;;;;1.33;1.33;;;;;25.25;45.18;100363.28;6195750;23;44774;-80
2022/06/25 11:18:23;;;;;;;;;2.00;2.00;;;;;25.27;45.30;100376.78;6192772;22;45471;-81
2022/06/25 11:20:48;;;;;;;;;2.00;2.00;;;;;25.18;45.97;100378.13;6166427;23;47777;-80
2022/06/25 11:23:15;;;;;;;;;4.00;1.50;;;;;25.14;45.99;100376.53;6191554;23;45333;-80
2022/06/25 11:28:51;;;;;;;;;3.00;3.00;;;;;24.99;46.65;100382.78;6256294;22;44817;-80
2022/06/25 11:31:24;;;;;;;;;2.33;2.33;;;;;24.99;47.14;100390.94;6253219;22;46849;-80
2022/06/25 11:33:55;;;;;;;;;3.00;3.00;;;;;24.86;48.23;100387.97;6227815;22;45241;-80
2022/06/25 11:36:21;;;;;;;;;2.50;2.50;;;;;24.67;49.09;100404.34;6238371;22;44747;-80
2022/06/25 11:38:52;;;;;;;;;2.00;2.00;;;;;24.48;49.67;100401.59;6250938;22;45334;-79
2022/06/25 11:41:33;;;;;;;;;2.00;2.00;;;;;24.33;49.50;100395.09;6250891;22;46803;-79
2022/06/25 11:44:08;;;;;;;;;3.67;3.00;;;;;24.28;49.69;100395.31;6253122;22;45350;-80
2022/06/25 11:46:34;;;;;;;;;2.00;2.00;;;;;24.26;50.19;100396.31;6252401;22;45410;-80
2022/06/25 11:49:04;;;;;;;;;3.33;3.33;;;;;24.15;51.42;100400.44;6256088;22;45503;-80
2022/06/25 11:51:30;;;;;;;;;4.00;4.00;;;;;24.10;52.04;100402.50;6254264;22;46806;-80
2022/06/25 11:53:56;;;;;;;;;5.00;4.00;;;;;23.90;53.03;100400.72;6256406;22;45295;-80
2022/06/25 11:56:21;;;;;;;;;4.00;3.00;;;;;23.79;54.73;100396.75;6256951;22;45306;-80
2022/06/25 11:58:47;;;;;;;;;4.25;2.00;;;;;23.63;54.96;100394.72;6256490;22;45334;-80
2022/06/25 12:01:13;;;;;;;;;3.25;3.00;;;;;23.52;56.71;100391.59;6253185;22;47077;-79